Flight Track Log - Related Links

Times and Time Zones

All times are in EDT time to prevent confusion due to time zone crossing. See the OPT429 flight status page for this flight to view local times or setup timezone preferences in your user account.

Time Position Orientation Groundspeed Altitude Reporting Facility
EDT Latitude Longitude Course Direction KTS MPH feet Rate Location/Type
Wed 05:47:10 PM 26.6072 -79.9675 282° West 257 296 6,200  Level Miami Center
Wed 05:48:11 PM 26.5525 -80.0200 221° Southwest 281 323 9,100 1,902 Climbing Miami Center
Wed 05:49:13 PM 26.5417 -80.1011 262° West 280 322 10,100 484 Climbing Miami Center
Wed 05:50:15 PM 26.5642 -80.2025 284° West 312 359 10,100 -48 Level Miami Center
Wed 05:51:00 PM 26.5493 -80.1373 282° West  Level FlightAware Approximate
Wed 05:51:17 PM 26.5853 -80.3022 283° West 328 377 10,000  Level Miami Center
Wed 05:52:00 PM 26.5612 -80.2026 282° West  Level FlightAware Approximate
Wed 05:52:18 PM 26.6075 -80.4125 283° West 340 391 10,000  Level Miami Center
Wed 05:53:20 PM 26.6108 -80.5194 272° West 342 394 10,000  Level Miami Center
Wed 05:54:22 PM 26.6117 -80.6264 271° West 347 399 10,000  Level Miami Center
Wed 05:55:24 PM 26.6147 -80.7308 272° West 318 366 10,000 -49 Level Miami Center
Wed 05:56:25 PM 26.6483 -80.8036 297° West 279 321 9,900 -49 Descending Miami Center
Wed 05:57:27 PM 26.7103 -80.8694 316° Northwest 297 342 9,900  Level Miami Center
Wed 05:58:29 PM 26.7769 -80.9403 317° Northwest 316 364 9,900  Level Miami Center
Wed 05:59:31 PM 26.8464 -81.0133 317° Northwest 326 375 9,900  Level Miami Center
Wed 06:00:33 PM 26.9089 -81.0792 317° Northwest 321 369 9,900 48 Level Miami Center
Wed 06:01:35 PM 26.9778 -81.1517 317° Northwest 320 368 10,000  Climbing Miami Center
Wed 06:02:36 PM 27.0194 -81.2319 300° West 317 365 9,900 -48 Descending Miami Center
Wed 06:03:39 PM 27.0339 -81.3375 279° West 316 364 9,900 -97 Level Miami Center
Wed 06:04:40 PM 27.0481 -81.4375 279° West 315 362 9,700 -927 Descending Miami Center
Wed 06:05:42 PM 27.0186 -81.5214 249° West 292 336 8,000 -1,403 Descending Miami Center
Wed 06:06:44 PM 26.9589 -81.5769 220° Southwest 283 326 6,800 -1,452 Descending Miami Center
Wed 06:07:46 PM 26.8933 -81.6342 218° Southwest 280 322 5,000 -927 Descending Miami Center
Wed 06:08:47 PM 26.8411 -81.6947 226° Southwest 275 316 4,900 -829 Descending Miami Center
Wed 06:09:49 PM 26.7836 -81.7586 225° Southwest 274 315 3,300 -1,161 Descending Miami Center
Wed 06:10:51 PM 26.7336 -81.8128 224° Southwest 256 295 2,500 -484 Descending Miami Center
Wed 06:11:53 PM 26.6800 -81.8728 225° Southwest 259 298 2,300 -290 Descending Miami Center
Wed 06:12:55 PM 26.6283 -81.9194 219° Southwest 243 280 1,900 -387 Descending Miami Center
Wed 06:13:57 PM 26.5697 -81.9147 176° South 210 242 1,500 -732 Descending Miami Center
Wed 06:14:58 PM 26.5711 -81.8814 87° East 138 159 400 -683 Descending Miami Center
Wed 06:16:00 PM 26.5967 -81.8492 48° Northeast 129 148 100 -290 Descending Miami Center

Login

Don't have an account? Register now (free) for customized features, flight alerts, and more!